sensor_id;sensor_type;location;lat;lon;timestamp;P1;durP1;ratioP1;P2;durP2;ratioP2
39958;SDS011;25639;53.634;9.880;2024-03-06T00:01:41;22.67;;;11.50;;
39958;SDS011;25639;53.634;9.880;2024-03-06T00:04:09;25.63;;;11.88;;
39958;SDS011;25639;53.634;9.880;2024-03-06T00:06:34;25.77;;;11.82;;
39958;SDS011;25639;53.634;9.880;2024-03-06T00:09:00;28.83;;;12.00;;
39958;SDS011;25639;53.634;9.880;2024-03-06T00:11:27;24.85;;;11.23;;
39958;SDS011;25639;53.634;9.880;2024-03-06T00:14:02;22.98;;;11.32;;
39958;SDS011;25639;53.634;9.880;2024-03-06T00:16:32;22.75;;;10.90;;
39958;SDS011;25639;53.634;9.880;2024-03-06T00:19:18;24.65;;;11.15;;
39958;SDS011;25639;53.634;9.880;2024-03-06T00:22:03;23.38;;;10.60;;
39958;SDS011;25639;53.634;9.880;2024-03-06T00:24:42;19.38;;;10.25;;
39958;SDS011;25639;53.634;9.880;2024-03-06T00:27:07;19.45;;;10.52;;
39958;SDS011;25639;53.634;9.880;2024-03-06T00:29:33;23.17;;;10.98;;
39958;SDS011;25639;53.634;9.880;2024-03-06T00:32:01;21.08;;;10.45;;
39958;SDS011;25639;53.634;9.880;2024-03-06T00:34:26;21.95;;;10.45;;
39958;SDS011;25639;53.634;9.880;2024-03-06T00:36:52;20.45;;;10.90;;
39958;SDS011;25639;53.634;9.880;2024-03-06T00:39:19;24.15;;;10.35;;
39958;SDS011;25639;53.634;9.880;2024-03-06T00:41:44;22.20;;;10.85;;
39958;SDS011;25639;53.634;9.880;2024-03-06T00:44:10;21.83;;;10.70;;
39958;SDS011;25639;53.634;9.880;2024-03-06T00:46:35;24.88;;;10.95;;
39958;SDS011;25639;53.634;9.880;2024-03-06T00:49:01;19.75;;;10.70;;
39958;SDS011;25639;53.634;9.880;2024-03-06T00:51:26;20.90;;;10.73;;
39958;SDS011;25639;53.634;9.880;2024-03-06T00:53:51;20.92;;;10.82;;
39958;SDS011;25639;53.634;9.880;2024-03-06T00:56:17;22.05;;;11.15;;
39958;SDS011;25639;53.634;9.880;2024-03-06T00:58:42;23.45;;;11.20;;
39958;SDS011;25639;53.634;9.880;2024-03-06T01:01:07;21.35;;;11.23;;
39958;SDS011;25639;53.634;9.880;2024-03-06T01:03:33;22.83;;;10.88;;
39958;SDS011;25639;53.634;9.880;2024-03-06T01:05:58;21.92;;;10.90;;
39958;SDS011;25639;53.634;9.880;2024-03-06T01:08:23;21.23;;;11.48;;
39958;SDS011;25639;53.634;9.880;2024-03-06T01:10:52;23.55;;;11.82;;
39958;SDS011;25639;53.634;9.880;2024-03-06T01:13:17;24.83;;;11.82;;
39958;SDS011;25639;53.634;9.880;2024-03-06T01:15:44;22.80;;;11.57;;
39958;SDS011;25639;53.634;9.880;2024-03-06T01:18:09;26.38;;;10.48;;
39958;SDS011;25639;53.634;9.880;2024-03-06T01:20:35;23.30;;;10.85;;
39958;SDS011;25639;53.634;9.880;2024-03-06T01:23:01;24.08;;;11.25;;
39958;SDS011;25639;53.634;9.880;2024-03-06T01:25:26;28.13;;;11.00;;
39958;SDS011;25639;53.634;9.880;2024-03-06T01:27:52;24.67;;;10.95;;
39958;SDS011;25639;53.634;9.880;2024-03-06T01:30:18;23.25;;;10.85;;
39958;SDS011;25639;53.634;9.880;2024-03-06T01:32:47;17.98;;;9.95;;
39958;SDS011;25639;53.634;9.880;2024-03-06T01:35:12;20.05;;;10.32;;
39958;SDS011;25639;53.634;9.880;2024-03-06T01:37:38;24.45;;;10.77;;
39958;SDS011;25639;53.634;9.880;2024-03-06T01:40:03;22.73;;;11.50;;
39958;SDS011;25639;53.634;9.880;2024-03-06T01:42:29;21.70;;;9.77;;
39958;SDS011;25639;53.634;9.880;2024-03-06T01:44:55;25.25;;;10.27;;
39958;SDS011;25639;53.634;9.880;2024-03-06T01:47:20;26.45;;;10.50;;
39958;SDS011;25639;53.634;9.880;2024-03-06T01:49:46;19.60;;;9.55;;
39958;SDS011;25639;53.634;9.880;2024-03-06T01:52:12;28.15;;;10.80;;
39958;SDS011;25639;53.634;9.880;2024-03-06T01:54:40;17.42;;;9.48;;
39958;SDS011;25639;53.634;9.880;2024-03-06T01:57:07;21.92;;;10.65;;
39958;SDS011;25639;53.634;9.880;2024-03-06T01:59:33;22.15;;;10.10;;
39958;SDS011;25639;53.634;9.880;2024-03-06T02:01:59;23.10;;;10.07;;
39958;SDS011;25639;53.634;9.880;2024-03-06T02:04:28;23.13;;;10.43;;
39958;SDS011;25639;53.634;9.880;2024-03-06T02:06:54;25.45;;;9.95;;
39958;SDS011;25639;53.634;9.880;2024-03-06T02:09:20;22.70;;;9.30;;
39958;SDS011;25639;53.634;9.880;2024-03-06T02:11:46;19.10;;;8.98;;
39958;SDS011;25639;53.634;9.880;2024-03-06T02:14:11;23.70;;;9.07;;
39958;SDS011;25639;53.634;9.880;2024-03-06T02:16:37;15.50;;;8.77;;
39958;SDS011;25639;53.634;9.880;2024-03-06T02:19:04;20.30;;;8.60;;
39958;SDS011;25639;53.634;9.880;2024-03-06T02:21:32;20.58;;;9.25;;
39958;SDS011;25639;53.634;9.880;2024-03-06T02:24:09;14.80;;;7.93;;
39958;SDS011;25639;53.634;9.880;2024-03-06T02:26:38;21.63;;;8.80;;
39958;SDS011;25639;53.634;9.880;2024-03-06T02:29:03;16.92;;;7.88;;
39958;SDS011;25639;53.634;9.880;2024-03-06T02:31:31;18.67;;;7.88;;
39958;SDS011;25639;53.634;9.880;2024-03-06T02:33:58;20.27;;;8.75;;
39958;SDS011;25639;53.634;9.880;2024-03-06T02:36:23;17.60;;;8.05;;
39958;SDS011;25639;53.634;9.880;2024-03-06T02:38:49;18.02;;;8.30;;
39958;SDS011;25639;53.634;9.880;2024-03-06T02:41:16;18.92;;;8.55;;
39958;SDS011;25639;53.634;9.880;2024-03-06T02:43:42;17.48;;;8.90;;
39958;SDS011;25639;53.634;9.880;2024-03-06T02:46:08;19.23;;;8.02;;
39958;SDS011;25639;53.634;9.880;2024-03-06T02:48:33;17.70;;;7.68;;
39958;SDS011;25639;53.634;9.880;2024-03-06T02:51:00;19.92;;;7.78;;
39958;SDS011;25639;53.634;9.880;2024-03-06T02:53:25;19.08;;;8.55;;
39958;SDS011;25639;53.634;9.880;2024-03-06T02:55:52;16.15;;;8.52;;
39958;SDS011;25639;53.634;9.880;2024-03-06T02:58:18;17.88;;;7.53;;
39958;SDS011;25639;53.634;9.880;2024-03-06T03:00:43;21.77;;;8.88;;
39958;SDS011;25639;53.634;9.880;2024-03-06T03:03:09;15.43;;;7.57;;
39958;SDS011;25639;53.634;9.880;2024-03-06T03:05:37;14.23;;;7.45;;
39958;SDS011;25639;53.634;9.880;2024-03-06T03:08:02;17.33;;;8.05;;
39958;SDS011;25639;53.634;9.880;2024-03-06T03:10:28;12.85;;;6.78;;
39958;SDS011;25639;53.634;9.880;2024-03-06T03:12:54;18.92;;;7.32;;
39958;SDS011;25639;53.634;9.880;2024-03-06T03:15:19;18.20;;;7.32;;
39958;SDS011;25639;53.634;9.880;2024-03-06T03:17:45;13.95;;;7.28;;
39958;SDS011;25639;53.634;9.880;2024-03-06T03:20:11;16.70;;;7.45;;
39958;SDS011;25639;53.634;9.880;2024-03-06T03:22:37;15.82;;;7.28;;
39958;SDS011;25639;53.634;9.880;2024-03-06T03:25:03;16.70;;;7.28;;
39958;SDS011;25639;53.634;9.880;2024-03-06T03:27:32;17.10;;;7.32;;
39958;SDS011;25639;53.634;9.880;2024-03-06T03:29:58;19.08;;;6.85;;
39958;SDS011;25639;53.634;9.880;2024-03-06T03:32:23;15.70;;;7.35;;
39958;SDS011;25639;53.634;9.880;2024-03-06T03:34:48;13.32;;;7.13;;
39958;SDS011;25639;53.634;9.880;2024-03-06T03:37:15;21.67;;;7.10;;
39958;SDS011;25639;53.634;9.880;2024-03-06T03:39:41;13.98;;;6.53;;
39958;SDS011;25639;53.634;9.880;2024-03-06T03:42:09;16.25;;;7.50;;
39958;SDS011;25639;53.634;9.880;2024-03-06T03:44:34;12.90;;;6.82;;
39958;SDS011;25639;53.634;9.880;2024-03-06T03:46:59;16.80;;;6.95;;
39958;SDS011;25639;53.634;9.880;2024-03-06T03:49:46;16.15;;;7.00;;
39958;SDS011;25639;53.634;9.880;2024-03-06T03:52:11;14.63;;;6.93;;
39958;SDS011;25639;53.634;9.880;2024-03-06T03:54:38;14.27;;;7.47;;
39958;SDS011;25639;53.634;9.880;2024-03-06T03:57:04;15.45;;;7.53;;
39958;SDS011;25639;53.634;9.880;2024-03-06T03:59:29;15.57;;;7.70;;
39958;SDS011;25639;53.634;9.880;2024-03-06T04:01:54;12.98;;;6.70;;
39958;SDS011;25639;53.634;9.880;2024-03-06T04:04:22;15.45;;;7.15;;
39958;SDS011;25639;53.634;9.880;2024-03-06T04:06:47;12.98;;;7.40;;
39958;SDS011;25639;53.634;9.880;2024-03-06T04:09:12;15.50;;;7.25;;
39958;SDS011;25639;53.634;9.880;2024-03-06T04:11:39;13.45;;;7.30;;
39958;SDS011;25639;53.634;9.880;2024-03-06T04:14:05;15.02;;;7.22;;
39958;SDS011;25639;53.634;9.880;2024-03-06T04:16:31;13.00;;;6.85;;
39958;SDS011;25639;53.634;9.880;2024-03-06T04:18:57;15.30;;;7.43;;
39958;SDS011;25639;53.634;9.880;2024-03-06T04:21:22;16.52;;;8.05;;
39958;SDS011;25639;53.634;9.880;2024-03-06T04:23:48;17.85;;;7.22;;
39958;SDS011;25639;53.634;9.880;2024-03-06T04:26:14;13.40;;;7.65;;
39958;SDS011;25639;53.634;9.880;2024-03-06T04:28:40;15.88;;;7.72;;
39958;SDS011;25639;53.634;9.880;2024-03-06T04:31:06;15.13;;;7.55;;
39958;SDS011;25639;53.634;9.880;2024-03-06T04:33:31;16.85;;;7.93;;
39958;SDS011;25639;53.634;9.880;2024-03-06T04:35:58;19.08;;;8.20;;
39958;SDS011;25639;53.634;9.880;2024-03-06T04:38:27;15.07;;;7.18;;
39958;SDS011;25639;53.634;9.880;2024-03-06T04:40:52;14.38;;;7.28;;
39958;SDS011;25639;53.634;9.880;2024-03-06T04:43:18;15.18;;;6.78;;
39958;SDS011;25639;53.634;9.880;2024-03-06T04:45:43;13.27;;;7.20;;
39958;SDS011;25639;53.634;9.880;2024-03-06T04:48:09;15.18;;;7.60;;
39958;SDS011;25639;53.634;9.880;2024-03-06T04:50:34;17.15;;;7.55;;
39958;SDS011;25639;53.634;9.880;2024-03-06T04:52:59;14.60;;;7.68;;
39958;SDS011;25639;53.634;9.880;2024-03-06T04:55:25;14.50;;;8.10;;
39958;SDS011;25639;53.634;9.880;2024-03-06T04:57:51;17.20;;;7.85;;
39958;SDS011;25639;53.634;9.880;2024-03-06T05:00:18;14.02;;;7.50;;
39958;SDS011;25639;53.634;9.880;2024-03-06T05:02:43;19.08;;;8.05;;
39958;SDS011;25639;53.634;9.880;2024-03-06T05:05:09;15.65;;;7.68;;
39958;SDS011;25639;53.634;9.880;2024-03-06T05:07:34;18.88;;;7.53;;
39958;SDS011;25639;53.634;9.880;2024-03-06T05:09:59;15.40;;;7.88;;
39958;SDS011;25639;53.634;9.880;2024-03-06T05:12:25;14.82;;;7.65;;
39958;SDS011;25639;53.634;9.880;2024-03-06T05:14:52;14.82;;;6.90;;
39958;SDS011;25639;53.634;9.880;2024-03-06T05:17:18;15.00;;;7.78;;
39958;SDS011;25639;53.634;9.880;2024-03-06T05:19:44;14.60;;;7.25;;
39958;SDS011;25639;53.634;9.880;2024-03-06T05:22:10;14.98;;;7.20;;
39958;SDS011;25639;53.634;9.880;2024-03-06T05:24:39;13.00;;;7.05;;
39958;SDS011;25639;53.634;9.880;2024-03-06T05:27:04;14.30;;;7.65;;
39958;SDS011;25639;53.634;9.880;2024-03-06T05:29:30;13.75;;;7.18;;
39958;SDS011;25639;53.634;9.880;2024-03-06T05:31:56;12.45;;;7.07;;
39958;SDS011;25639;53.634;9.880;2024-03-06T05:34:24;13.25;;;6.88;;
39958;SDS011;25639;53.634;9.880;2024-03-06T05:36:50;11.45;;;7.00;;
39958;SDS011;25639;53.634;9.880;2024-03-06T05:39:15;12.98;;;7.03;;
39958;SDS011;25639;53.634;9.880;2024-03-06T05:41:44;12.95;;;7.20;;
39958;SDS011;25639;53.634;9.880;2024-03-06T05:44:33;13.52;;;6.45;;
39958;SDS011;25639;53.634;9.880;2024-03-06T05:46:59;14.80;;;7.05;;
39958;SDS011;25639;53.634;9.880;2024-03-06T05:49:26;11.85;;;6.88;;
39958;SDS011;25639;53.634;9.880;2024-03-06T05:51:51;15.52;;;7.07;;
39958;SDS011;25639;53.634;9.880;2024-03-06T05:54:17;16.65;;;6.95;;
39958;SDS011;25639;53.634;9.880;2024-03-06T05:56:44;11.43;;;6.85;;
39958;SDS011;25639;53.634;9.880;2024-03-06T05:59:09;13.30;;;6.60;;
39958;SDS011;25639;53.634;9.880;2024-03-06T06:01:35;12.75;;;6.82;;
39958;SDS011;25639;53.634;9.880;2024-03-06T06:04:01;12.45;;;7.03;;
39958;SDS011;25639;53.634;9.880;2024-03-06T06:06:40;11.75;;;6.70;;
39958;SDS011;25639;53.634;9.880;2024-03-06T06:09:06;12.32;;;6.78;;
39958;SDS011;25639;53.634;9.880;2024-03-06T06:11:32;13.38;;;7.28;;
39958;SDS011;25639;53.634;9.880;2024-03-06T06:14:10;15.10;;;7.00;;
39958;SDS011;25639;53.634;9.880;2024-03-06T06:16:39;18.13;;;7.55;;
39958;SDS011;25639;53.634;9.880;2024-03-06T06:19:25;15.80;;;7.53;;
39958;SDS011;25639;53.634;9.880;2024-03-06T06:21:54;19.65;;;7.72;;
39958;SDS011;25639;53.634;9.880;2024-03-06T06:24:20;15.10;;;7.72;;
39958;SDS011;25639;53.634;9.880;2024-03-06T06:26:45;15.93;;;7.28;;
39958;SDS011;25639;53.634;9.880;2024-03-06T06:29:12;14.00;;;7.72;;
39958;SDS011;25639;53.634;9.880;2024-03-06T06:31:37;12.90;;;6.75;;
39958;SDS011;25639;53.634;9.880;2024-03-06T06:34:03;14.85;;;7.53;;
39958;SDS011;25639;53.634;9.880;2024-03-06T06:36:28;13.65;;;7.07;;
39958;SDS011;25639;53.634;9.880;2024-03-06T06:38:54;14.55;;;7.75;;
39958;SDS011;25639;53.634;9.880;2024-03-06T06:41:20;17.52;;;7.47;;
39958;SDS011;25639;53.634;9.880;2024-03-06T06:43:46;17.48;;;8.13;;
39958;SDS011;25639;53.634;9.880;2024-03-06T06:46:12;15.02;;;7.93;;
39958;SDS011;25639;53.634;9.880;2024-03-06T06:48:47;14.10;;;7.78;;
39958;SDS011;25639;53.634;9.880;2024-03-06T06:51:14;18.73;;;9.05;;
39958;SDS011;25639;53.634;9.880;2024-03-06T06:53:39;21.83;;;8.30;;
39958;SDS011;25639;53.634;9.880;2024-03-06T06:56:06;16.10;;;8.82;;
39958;SDS011;25639;53.634;9.880;2024-03-06T06:58:33;16.70;;;8.27;;
39958;SDS011;25639;53.634;9.880;2024-03-06T07:01:18;19.73;;;8.80;;
39958;SDS011;25639;53.634;9.880;2024-03-06T07:04:06;21.13;;;8.30;;
39958;SDS011;25639;53.634;9.880;2024-03-06T07:06:32;22.40;;;9.07;;
39958;SDS011;25639;53.634;9.880;2024-03-06T07:08:57;14.52;;;8.43;;
39958;SDS011;25639;53.634;9.880;2024-03-06T07:11:23;20.45;;;8.98;;
39958;SDS011;25639;53.634;9.880;2024-03-06T07:13:49;16.45;;;8.15;;
39958;SDS011;25639;53.634;9.880;2024-03-06T07:16:14;19.38;;;8.60;;
39958;SDS011;25639;53.634;9.880;2024-03-06T07:18:40;18.48;;;8.93;;
39958;SDS011;25639;53.634;9.880;2024-03-06T07:21:05;14.63;;;8.68;;
39958;SDS011;25639;53.634;9.880;2024-03-06T07:23:30;16.35;;;8.68;;
39958;SDS011;25639;53.634;9.880;2024-03-06T07:25:56;17.98;;;8.48;;
39958;SDS011;25639;53.634;9.880;2024-03-06T07:28:22;16.30;;;8.68;;
39958;SDS011;25639;53.634;9.880;2024-03-06T07:30:48;14.00;;;8.13;;
39958;SDS011;25639;53.634;9.880;2024-03-06T07:33:13;14.18;;;8.23;;
39958;SDS011;25639;53.634;9.880;2024-03-06T07:35:39;22.25;;;8.45;;
39958;SDS011;25639;53.634;9.880;2024-03-06T07:38:04;14.55;;;7.30;;
39958;SDS011;25639;53.634;9.880;2024-03-06T07:40:30;13.73;;;7.82;;
39958;SDS011;25639;53.634;9.880;2024-03-06T07:42:57;13.13;;;7.78;;
39958;SDS011;25639;53.634;9.880;2024-03-06T07:45:22;22.40;;;7.22;;
39958;SDS011;25639;53.634;9.880;2024-03-06T07:47:48;13.15;;;7.50;;
39958;SDS011;25639;53.634;9.880;2024-03-06T07:50:13;12.45;;;7.93;;
39958;SDS011;25639;53.634;9.880;2024-03-06T07:52:43;13.45;;;7.53;;
39958;SDS011;25639;53.634;9.880;2024-03-06T07:55:10;11.98;;;7.25;;
39958;SDS011;25639;53.634;9.880;2024-03-06T07:57:35;11.02;;;6.78;;
39958;SDS011;25639;53.634;9.880;2024-03-06T08:00:01;12.23;;;6.97;;
39958;SDS011;25639;53.634;9.880;2024-03-06T08:02:27;11.30;;;7.32;;
39958;SDS011;25639;53.634;9.880;2024-03-06T08:04:53;15.15;;;7.93;;
39958;SDS011;25639;53.634;9.880;2024-03-06T08:07:19;11.75;;;6.32;;
39958;SDS011;25639;53.634;9.880;2024-03-06T08:09:44;13.98;;;7.00;;
39958;SDS011;25639;53.634;9.880;2024-03-06T08:12:10;9.98;;;5.95;;
39958;SDS011;25639;53.634;9.880;2024-03-06T08:14:35;9.95;;;6.38;;
39958;SDS011;25639;53.634;9.880;2024-03-06T08:17:00;13.18;;;7.28;;
39958;SDS011;25639;53.634;9.880;2024-03-06T08:19:30;12.27;;;6.57;;
39958;SDS011;25639;53.634;9.880;2024-03-06T08:21:56;11.18;;;6.88;;
39958;SDS011;25639;53.634;9.880;2024-03-06T08:24:21;11.40;;;6.82;;
39958;SDS011;25639;53.634;9.880;2024-03-06T08:26:55;11.40;;;6.03;;
39958;SDS011;25639;53.634;9.880;2024-03-06T08:29:22;14.10;;;6.78;;
39958;SDS011;25639;53.634;9.880;2024-03-06T08:31:47;8.95;;;5.63;;
39958;SDS011;25639;53.634;9.880;2024-03-06T08:34:13;12.82;;;6.20;;
39958;SDS011;25639;53.634;9.880;2024-03-06T08:36:38;9.25;;;5.57;;
39958;SDS011;25639;53.634;9.880;2024-03-06T08:39:03;13.63;;;6.40;;
39958;SDS011;25639;53.634;9.880;2024-03-06T08:41:30;9.95;;;5.85;;
39958;SDS011;25639;53.634;9.880;2024-03-06T08:43:56;11.25;;;6.47;;
39958;SDS011;25639;53.634;9.880;2024-03-06T08:46:21;10.43;;;6.15;;
39958;SDS011;25639;53.634;9.880;2024-03-06T08:48:47;9.70;;;5.97;;
39958;SDS011;25639;53.634;9.880;2024-03-06T08:51:12;9.82;;;5.88;;
39958;SDS011;25639;53.634;9.880;2024-03-06T08:53:37;11.55;;;6.00;;
39958;SDS011;25639;53.634;9.880;2024-03-06T08:56:03;11.05;;;5.85;;
39958;SDS011;25639;53.634;9.880;2024-03-06T08:58:29;12.57;;;6.30;;
39958;SDS011;25639;53.634;9.880;2024-03-06T09:00:55;13.18;;;6.32;;
39958;SDS011;25639;53.634;9.880;2024-03-06T09:03:20;13.60;;;6.22;;
39958;SDS011;25639;53.634;9.880;2024-03-06T09:05:45;9.65;;;5.38;;
39958;SDS011;25639;53.634;9.880;2024-03-06T09:08:10;11.55;;;6.00;;
39958;SDS011;25639;53.634;9.880;2024-03-06T09:10:37;12.32;;;6.18;;
39958;SDS011;25639;53.634;9.880;2024-03-06T09:13:03;13.82;;;6.10;;
39958;SDS011;25639;53.634;9.880;2024-03-06T09:15:29;10.40;;;6.25;;
39958;SDS011;25639;53.634;9.880;2024-03-06T09:17:54;11.80;;;6.07;;
39958;SDS011;25639;53.634;9.880;2024-03-06T09:20:20;10.57;;;6.10;;
39958;SDS011;25639;53.634;9.880;2024-03-06T09:22:45;12.50;;;6.40;;
39958;SDS011;25639;53.634;9.880;2024-03-06T09:25:11;12.88;;;6.80;;
39958;SDS011;25639;53.634;9.880;2024-03-06T09:27:38;10.52;;;6.22;;
39958;SDS011;25639;53.634;9.880;2024-03-06T09:30:04;12.18;;;6.18;;
39958;SDS011;25639;53.634;9.880;2024-03-06T09:32:30;12.18;;;6.00;;
39958;SDS011;25639;53.634;9.880;2024-03-06T09:34:55;10.35;;;6.28;;
39958;SDS011;25639;53.634;9.880;2024-03-06T09:37:20;11.52;;;6.45;;
39958;SDS011;25639;53.634;9.880;2024-03-06T09:39:46;13.10;;;6.07;;
39958;SDS011;25639;53.634;9.880;2024-03-06T09:42:12;12.00;;;6.22;;
39958;SDS011;25639;53.634;9.880;2024-03-06T09:44:38;10.55;;;6.63;;
39958;SDS011;25639;53.634;9.880;2024-03-06T09:47:04;11.07;;;6.55;;
39958;SDS011;25639;53.634;9.880;2024-03-06T09:49:31;11.13;;;6.60;;
39958;SDS011;25639;53.634;9.880;2024-03-06T09:51:56;11.15;;;6.35;;
39958;SDS011;25639;53.634;9.880;2024-03-06T09:54:23;12.20;;;6.90;;
39958;SDS011;25639;53.634;9.880;2024-03-06T09:56:51;13.90;;;6.60;;
39958;SDS011;25639;53.634;9.880;2024-03-06T09:59:17;13.05;;;6.63;;
39958;SDS011;25639;53.634;9.880;2024-03-06T10:01:55;12.18;;;6.93;;
39958;SDS011;25639;53.634;9.880;2024-03-06T10:04:26;13.75;;;7.40;;
39958;SDS011;25639;53.634;9.880;2024-03-06T10:06:56;15.02;;;7.45;;
39958;SDS011;25639;53.634;9.880;2024-03-06T10:09:23;12.73;;;7.32;;
39958;SDS011;25639;53.634;9.880;2024-03-06T10:11:49;15.80;;;7.30;;
39958;SDS011;25639;53.634;9.880;2024-03-06T10:14:14;12.43;;;7.05;;
39958;SDS011;25639;53.634;9.880;2024-03-06T10:16:51;13.40;;;7.45;;
39958;SDS011;25639;53.634;9.880;2024-03-06T10:19:27;17.00;;;8.27;;
39958;SDS011;25639;53.634;9.880;2024-03-06T10:21:54;13.05;;;7.00;;
39958;SDS011;25639;53.634;9.880;2024-03-06T10:24:21;12.70;;;6.93;;
39958;SDS011;25639;53.634;9.880;2024-03-06T10:26:51;14.05;;;7.63;;
39958;SDS011;25639;53.634;9.880;2024-03-06T10:29:19;12.07;;;7.57;;
39958;SDS011;25639;53.634;9.880;2024-03-06T10:31:48;14.80;;;7.85;;
39958;SDS011;25639;53.634;9.880;2024-03-06T10:34:19;13.63;;;7.47;;
39958;SDS011;25639;53.634;9.880;2024-03-06T10:36:45;15.57;;;8.43;;
39958;SDS011;25639;53.634;9.880;2024-03-06T10:39:11;18.15;;;8.23;;
39958;SDS011;25639;53.634;9.880;2024-03-06T10:41:39;15.30;;;8.27;;
39958;SDS011;25639;53.634;9.880;2024-03-06T10:44:06;15.10;;;7.80;;
39958;SDS011;25639;53.634;9.880;2024-03-06T10:46:38;14.93;;;8.32;;
39958;SDS011;25639;53.634;9.880;2024-03-06T10:51:38;16.67;;;8.07;;
39958;SDS011;25639;53.634;9.880;2024-03-06T10:54:08;21.65;;;9.10;;
39958;SDS011;25639;53.634;9.880;2024-03-06T10:56:36;19.88;;;9.27;;
39958;SDS011;25639;53.634;9.880;2024-03-06T10:59:04;15.27;;;8.38;;
39958;SDS011;25639;53.634;9.880;2024-03-06T11:01:30;14.57;;;8.20;;
39958;SDS011;25639;53.634;9.880;2024-03-06T11:03:57;16.05;;;8.73;;
39958;SDS011;25639;53.634;9.880;2024-03-06T11:06:25;18.63;;;8.40;;
39958;SDS011;25639;53.634;9.880;2024-03-06T11:08:51;15.90;;;8.80;;
39958;SDS011;25639;53.634;9.880;2024-03-06T11:11:22;17.65;;;8.20;;
39958;SDS011;25639;53.634;9.880;2024-03-06T11:13:49;16.05;;;7.85;;
39958;SDS011;25639;53.634;9.880;2024-03-06T11:16:15;14.93;;;8.93;;
39958;SDS011;25639;53.634;9.880;2024-03-06T11:18:41;16.23;;;8.88;;
39958;SDS011;25639;53.634;9.880;2024-03-06T11:23:36;19.30;;;8.68;;
39958;SDS011;25639;53.634;9.880;2024-03-06T11:26:36;15.52;;;8.02;;
39958;SDS011;25639;53.634;9.880;2024-03-06T11:29:01;13.95;;;7.55;;
39958;SDS011;25639;53.634;9.880;2024-03-06T11:31:26;15.88;;;7.55;;
39958;SDS011;25639;53.634;9.880;2024-03-06T11:33:53;19.20;;;8.75;;
39958;SDS011;25639;53.634;9.880;2024-03-06T11:36:27;12.57;;;8.18;;
39958;SDS011;25639;53.634;9.880;2024-03-06T11:38:57;13.93;;;8.20;;
39958;SDS011;25639;53.634;9.880;2024-03-06T11:41:29;14.45;;;8.00;;
39958;SDS011;25639;53.634;9.880;2024-03-06T11:43:56;16.73;;;9.13;;
39958;SDS011;25639;53.634;9.880;2024-03-06T11:46:22;14.35;;;7.70;;
39958;SDS011;25639;53.634;9.880;2024-03-06T11:49:04;18.17;;;8.70;;
39958;SDS011;25639;53.634;9.880;2024-03-06T11:51:39;16.08;;;8.80;;
39958;SDS011;25639;53.634;9.880;2024-03-06T11:54:06;20.88;;;8.93;;
39958;SDS011;25639;53.634;9.880;2024-03-06T11:56:31;16.75;;;8.23;;
39958;SDS011;25639;53.634;9.880;2024-03-06T11:58:56;15.38;;;8.50;;
39958;SDS011;25639;53.634;9.880;2024-03-06T12:01:22;15.25;;;8.30;;
39958;SDS011;25639;53.634;9.880;2024-03-06T12:03:47;16.83;;;8.85;;
39958;SDS011;25639;53.634;9.880;2024-03-06T12:06:12;16.50;;;8.75;;
39958;SDS011;25639;53.634;9.880;2024-03-06T12:08:39;16.80;;;8.82;;
39958;SDS011;25639;53.634;9.880;2024-03-06T12:11:05;18.95;;;8.25;;
39958;SDS011;25639;53.634;9.880;2024-03-06T12:13:30;14.38;;;8.30;;
39958;SDS011;25639;53.634;9.880;2024-03-06T12:15:56;14.95;;;8.77;;
39958;SDS011;25639;53.634;9.880;2024-03-06T12:18:22;14.02;;;8.88;;
39958;SDS011;25639;53.634;9.880;2024-03-06T12:20:49;21.13;;;9.13;;
39958;SDS011;25639;53.634;9.880;2024-03-06T12:23:19;21.30;;;9.35;;
39958;SDS011;25639;53.634;9.880;2024-03-06T12:25:47;19.50;;;9.48;;
39958;SDS011;25639;53.634;9.880;2024-03-06T12:28:12;19.70;;;8.70;;
39958;SDS011;25639;53.634;9.880;2024-03-06T12:30:41;16.27;;;8.95;;
39958;SDS011;25639;53.634;9.880;2024-03-06T12:33:09;18.35;;;8.60;;
39958;SDS011;25639;53.634;9.880;2024-03-06T12:35:34;16.38;;;9.23;;
39958;SDS011;25639;53.634;9.880;2024-03-06T12:38:00;15.65;;;8.60;;
39958;SDS011;25639;53.634;9.880;2024-03-06T12:40:36;15.82;;;8.75;;
39958;SDS011;25639;53.634;9.880;2024-03-06T12:43:02;16.70;;;8.80;;
39958;SDS011;25639;53.634;9.880;2024-03-06T12:45:27;14.60;;;8.85;;
39958;SDS011;25639;53.634;9.880;2024-03-06T12:47:52;16.83;;;8.77;;
39958;SDS011;25639;53.634;9.880;2024-03-06T12:50:19;16.25;;;9.20;;
39958;SDS011;25639;53.634;9.880;2024-03-06T12:52:45;17.67;;;8.10;;
39958;SDS011;25639;53.634;9.880;2024-03-06T12:55:10;14.73;;;8.35;;
39958;SDS011;25639;53.634;9.880;2024-03-06T12:57:36;16.25;;;7.85;;
39958;SDS011;25639;53.634;9.880;2024-03-06T13:00:01;16.02;;;7.82;;
39958;SDS011;25639;53.634;9.880;2024-03-06T13:02:27;13.75;;;8.07;;
39958;SDS011;25639;53.634;9.880;2024-03-06T13:04:52;13.50;;;7.85;;
39958;SDS011;25639;53.634;9.880;2024-03-06T13:07:18;19.23;;;8.50;;
39958;SDS011;25639;53.634;9.880;2024-03-06T13:09:43;25.42;;;8.38;;
39958;SDS011;25639;53.634;9.880;2024-03-06T13:12:09;12.55;;;7.43;;
39958;SDS011;25639;53.634;9.880;2024-03-06T13:14:35;12.57;;;7.55;;
39958;SDS011;25639;53.634;9.880;2024-03-06T13:17:00;16.77;;;7.35;;
39958;SDS011;25639;53.634;9.880;2024-03-06T13:19:26;13.95;;;8.00;;
39958;SDS011;25639;53.634;9.880;2024-03-06T13:21:51;16.73;;;7.88;;
39958;SDS011;25639;53.634;9.880;2024-03-06T13:24:17;21.63;;;7.97;;
39958;SDS011;25639;53.634;9.880;2024-03-06T13:26:44;17.60;;;8.52;;
39958;SDS011;25639;53.634;9.880;2024-03-06T13:29:10;15.18;;;8.70;;
39958;SDS011;25639;53.634;9.880;2024-03-06T13:31:35;14.95;;;7.90;;
39958;SDS011;25639;53.634;9.880;2024-03-06T13:34:01;13.05;;;8.40;;
39958;SDS011;25639;53.634;9.880;2024-03-06T13:36:28;15.73;;;8.38;;
39958;SDS011;25639;53.634;9.880;2024-03-06T13:38:55;16.75;;;8.07;;
39958;SDS011;25639;53.634;9.880;2024-03-06T13:41:21;13.55;;;7.75;;
39958;SDS011;25639;53.634;9.880;2024-03-06T13:43:47;15.68;;;7.78;;
39958;SDS011;25639;53.634;9.880;2024-03-06T13:46:12;12.70;;;6.97;;
39958;SDS011;25639;53.634;9.880;2024-03-06T13:48:38;12.68;;;7.05;;
39958;SDS011;25639;53.634;9.880;2024-03-06T13:51:03;12.90;;;7.22;;
39958;SDS011;25639;53.634;9.880;2024-03-06T13:53:29;14.70;;;7.20;;
39958;SDS011;25639;53.634;9.880;2024-03-06T13:55:57;12.63;;;7.63;;
39958;SDS011;25639;53.634;9.880;2024-03-06T13:58:22;14.20;;;7.13;;
39958;SDS011;25639;53.634;9.880;2024-03-06T14:00:48;12.75;;;7.07;;
39958;SDS011;25639;53.634;9.880;2024-03-06T14:03:13;15.20;;;6.88;;
39958;SDS011;25639;53.634;9.880;2024-03-06T14:05:39;13.52;;;7.40;;
39958;SDS011;25639;53.634;9.880;2024-03-06T14:08:04;17.23;;;7.30;;
39958;SDS011;25639;53.634;9.880;2024-03-06T14:10:30;12.98;;;7.07;;
39958;SDS011;25639;53.634;9.880;2024-03-06T14:12:58;13.40;;;7.20;;
39958;SDS011;25639;53.634;9.880;2024-03-06T14:15:24;15.70;;;7.28;;
39958;SDS011;25639;53.634;9.880;2024-03-06T14:17:51;13.50;;;6.38;;
39958;SDS011;25639;53.634;9.880;2024-03-06T14:20:16;10.60;;;7.18;;
39958;SDS011;25639;53.634;9.880;2024-03-06T14:22:42;15.20;;;7.50;;
39958;SDS011;25639;53.634;9.880;2024-03-06T14:25:07;12.93;;;7.38;;
39958;SDS011;25639;53.634;9.880;2024-03-06T14:27:33;12.48;;;7.10;;
39958;SDS011;25639;53.634;9.880;2024-03-06T14:30:00;13.55;;;6.82;;
39958;SDS011;25639;53.634;9.880;2024-03-06T14:32:27;12.70;;;6.85;;
39958;SDS011;25639;53.634;9.880;2024-03-06T14:34:52;14.30;;;7.40;;
39958;SDS011;25639;53.634;9.880;2024-03-06T14:37:18;15.15;;;7.35;;